sensor_id;sensor_type;location;lat;lon;timestamp;pressure;altitude;pressure_sealevel;temperature;humidity
20013;BME280;10167;42.852;23.042;2023-03-23T00:00:13;94846.06;;;5.75;100.00
20013;BME280;10167;42.852;23.042;2023-03-23T00:02:41;94841.41;;;5.70;100.00
20013;BME280;10167;42.852;23.042;2023-03-23T00:05:11;94854.53;;;5.70;100.00
20013;BME280;10167;42.852;23.042;2023-03-23T00:07:39;94848.06;;;5.73;100.00
20013;BME280;10167;42.852;23.042;2023-03-23T00:10:12;94841.22;;;5.72;100.00
20013;BME280;10167;42.852;23.042;2023-03-23T00:12:39;94852.13;;;5.69;100.00
20013;BME280;10167;42.852;23.042;2023-03-23T00:15:09;94845.50;;;5.60;100.00
20013;BME280;10167;42.852;23.042;2023-03-23T00:17:39;94841.66;;;5.56;100.00
20013;BME280;10167;42.852;23.042;2023-03-23T00:20:11;94845.28;;;5.55;100.00
20013;BME280;10167;42.852;23.042;2023-03-23T00:22:39;94847.91;;;5.61;100.00
20013;BME280;10167;42.852;23.042;2023-03-23T00:25:07;94835.97;;;5.65;100.00
20013;BME280;10167;42.852;23.042;2023-03-23T00:27:35;94832.13;;;5.68;100.00
20013;BME280;10167;42.852;23.042;2023-03-23T00:30:04;94840.59;;;5.70;100.00
20013;BME280;10167;42.852;23.042;2023-03-23T00:32:33;94831.91;;;5.69;100.00
20013;BME280;10167;42.852;23.042;2023-03-23T00:35:01;94833.72;;;5.69;100.00
20013;BME280;10167;42.852;23.042;2023-03-23T00:37:31;94838.75;;;5.77;100.00
20013;BME280;10167;42.852;23.042;2023-03-23T00:39:59;94840.19;;;5.73;100.00
20013;BME280;10167;42.852;23.042;2023-03-23T00:42:29;94834.50;;;5.76;100.00
20013;BME280;10167;42.852;23.042;2023-03-23T00:44:57;94838.16;;;5.75;100.00
20013;BME280;10167;42.852;23.042;2023-03-23T00:47:28;94840.97;;;5.80;100.00
20013;BME280;10167;42.852;23.042;2023-03-23T00:49:57;94839.19;;;5.74;100.00
20013;BME280;10167;42.852;23.042;2023-03-23T00:52:25;94835.53;;;5.75;100.00
20013;BME280;10167;42.852;23.042;2023-03-23T00:54:54;94834.31;;;5.77;100.00
20013;BME280;10167;42.852;23.042;2023-03-23T00:57:25;94838.38;;;5.67;100.00
20013;BME280;10167;42.852;23.042;2023-03-23T00:59:52;94837.38;;;5.68;100.00
20013;BME280;10167;42.852;23.042;2023-03-23T01:02:20;94834.38;;;5.64;100.00
20013;BME280;10167;42.852;23.042;2023-03-23T01:04:51;94843.69;;;5.47;100.00
20013;BME280;10167;42.852;23.042;2023-03-23T01:07:19;94840.00;;;5.68;100.00
20013;BME280;10167;42.852;23.042;2023-03-23T01:09:49;94838.38;;;5.67;100.00
20013;BME280;10167;42.852;23.042;2023-03-23T01:12:21;94845.84;;;5.70;100.00
20013;BME280;10167;42.852;23.042;2023-03-23T01:14:51;94842.81;;;5.73;100.00
20013;BME280;10167;42.852;23.042;2023-03-23T01:17:19;94846.88;;;5.69;100.00
20013;BME280;10167;42.852;23.042;2023-03-23T01:19:47;94855.13;;;5.79;100.00
20013;BME280;10167;42.852;23.042;2023-03-23T01:22:15;94850.91;;;5.65;100.00
20013;BME280;10167;42.852;23.042;2023-03-23T01:24:43;94847.44;;;5.84;100.00
20013;BME280;10167;42.852;23.042;2023-03-23T01:27:12;94846.22;;;5.80;100.00
20013;BME280;10167;42.852;23.042;2023-03-23T01:29:41;94848.66;;;5.81;100.00
20013;BME280;10167;42.852;23.042;2023-03-23T01:32:09;94850.66;;;5.86;100.00
20013;BME280;10167;42.852;23.042;2023-03-23T01:34:38;94855.75;;;5.68;100.00
20013;BME280;10167;42.852;23.042;2023-03-23T01:37:06;94851.88;;;5.77;100.00
20013;BME280;10167;42.852;23.042;2023-03-23T01:39:35;94856.31;;;5.83;100.00
20013;BME280;10167;42.852;23.042;2023-03-23T01:42:04;94860.78;;;5.82;100.00
20013;BME280;10167;42.852;23.042;2023-03-23T01:47:43;94852.28;;;5.80;100.00
20013;BME280;10167;42.852;23.042;2023-03-23T01:50:11;94859.00;;;5.70;100.00
20013;BME280;10167;42.852;23.042;2023-03-23T01:52:40;94857.94;;;5.77;100.00
20013;BME280;10167;42.852;23.042;2023-03-23T01:55:09;94861.16;;;5.86;100.00
20013;BME280;10167;42.852;23.042;2023-03-23T01:57:38;94858.13;;;5.89;100.00
20013;BME280;10167;42.852;23.042;2023-03-23T02:00:08;94857.75;;;5.86;100.00
20013;BME280;10167;42.852;23.042;2023-03-23T02:02:44;94857.31;;;5.89;100.00
20013;BME280;10167;42.852;23.042;2023-03-23T02:05:19;94854.72;;;5.82;100.00
20013;BME280;10167;42.852;23.042;2023-03-23T02:07:50;94860.97;;;5.81;100.00
20013;BME280;10167;42.852;23.042;2023-03-23T02:10:19;94857.94;;;5.84;100.00
20013;BME280;10167;42.852;23.042;2023-03-23T02:12:48;94855.31;;;5.84;100.00
20013;BME280;10167;42.852;23.042;2023-03-23T02:15:16;94857.94;;;5.84;100.00
20013;BME280;10167;42.852;23.042;2023-03-23T02:17:50;94856.31;;;5.83;100.00
20013;BME280;10167;42.852;23.042;2023-03-23T02:20:36;94864.81;;;5.85;100.00
20013;BME280;10167;42.852;23.042;2023-03-23T02:23:22;94858.97;;;5.76;100.00
20013;BME280;10167;42.852;23.042;2023-03-23T02:26:00;94865.47;;;5.67;100.00
20013;BME280;10167;42.852;23.042;2023-03-23T02:31:55;94880.88;;;5.51;100.00
20013;BME280;10167;42.852;23.042;2023-03-23T02:34:28;94870.97;;;5.46;100.00
20013;BME280;10167;42.852;23.042;2023-03-23T02:37:01;94865.31;;;5.42;100.00
20013;BME280;10167;42.852;23.042;2023-03-23T02:39:33;94865.75;;;5.39;100.00
20013;BME280;10167;42.852;23.042;2023-03-23T02:42:05;94870.59;;;5.23;100.00
20013;BME280;10167;42.852;23.042;2023-03-23T02:44:36;94866.97;;;5.37;100.00
20013;BME280;10167;42.852;23.042;2023-03-23T02:47:09;94872.22;;;5.30;100.00
20013;BME280;10167;42.852;23.042;2023-03-23T02:49:42;94882.13;;;5.22;100.00
20013;BME280;10167;42.852;23.042;2023-03-23T02:52:14;94880.72;;;5.19;100.00
20013;BME280;10167;42.852;23.042;2023-03-23T02:54:48;94878.50;;;5.09;100.00
20013;BME280;10167;42.852;23.042;2023-03-23T02:57:17;94878.91;;;5.00;100.00
20013;BME280;10167;42.852;23.042;2023-03-23T02:59:46;94877.09;;;4.94;100.00
20013;BME280;10167;42.852;23.042;2023-03-23T03:02:17;94874.69;;;4.92;100.00
20013;BME280;10167;42.852;23.042;2023-03-23T03:04:53;94875.47;;;4.86;100.00
20013;BME280;10167;42.852;23.042;2023-03-23T03:07:39;94879.91;;;4.86;100.00
20013;BME280;10167;42.852;23.042;2023-03-23T03:10:19;94873.84;;;4.79;100.00
20013;BME280;10167;42.852;23.042;2023-03-23T03:12:55;94881.13;;;4.77;100.00
20013;BME280;10167;42.852;23.042;2023-03-23T03:15:29;94879.13;;;4.72;100.00
20013;BME280;10167;42.852;23.042;2023-03-23T03:18:04;94879.31;;;4.70;100.00
20013;BME280;10167;42.852;23.042;2023-03-23T03:20:39;94877.28;;;4.66;100.00
20013;BME280;10167;42.852;23.042;2023-03-23T03:23:10;94883.94;;;4.62;100.00
20013;BME280;10167;42.852;23.042;2023-03-23T03:25:46;94874.66;;;4.59;100.00
20013;BME280;10167;42.852;23.042;2023-03-23T03:28:21;94882.91;;;4.56;100.00
20013;BME280;10167;42.852;23.042;2023-03-23T03:30:54;94889.78;;;4.57;100.00
20013;BME280;10167;42.852;23.042;2023-03-23T03:33:24;94891.16;;;4.53;100.00
20013;BME280;10167;42.852;23.042;2023-03-23T03:35:58;94895.84;;;4.51;100.00
20013;BME280;10167;42.852;23.042;2023-03-23T03:38:27;94892.19;;;4.46;100.00
20013;BME280;10167;42.852;23.042;2023-03-23T03:40:56;94898.63;;;4.43;100.00
20013;BME280;10167;42.852;23.042;2023-03-23T03:43:24;94891.38;;;4.38;100.00
20013;BME280;10167;42.852;23.042;2023-03-23T03:45:51;94891.94;;;4.34;100.00
20013;BME280;10167;42.852;23.042;2023-03-23T03:48:19;94887.50;;;4.34;100.00
20013;BME280;10167;42.852;23.042;2023-03-23T03:50:47;94883.47;;;4.25;100.00
20013;BME280;10167;42.852;23.042;2023-03-23T03:53:20;94884.25;;;4.19;100.00
20013;BME280;10167;42.852;23.042;2023-03-23T03:55:48;94886.28;;;4.24;100.00
20013;BME280;10167;42.852;23.042;2023-03-23T03:58:17;94888.72;;;4.25;100.00
20013;BME280;10167;42.852;23.042;2023-03-23T04:01:04;94897.56;;;4.24;100.00
20013;BME280;10167;42.852;23.042;2023-03-23T04:03:37;94894.34;;;4.22;100.00
20013;BME280;10167;42.852;23.042;2023-03-23T04:06:11;94902.59;;;4.19;100.00
20013;BME280;10167;42.852;23.042;2023-03-23T04:08:41;94904.00;;;4.15;100.00
20013;BME280;10167;42.852;23.042;2023-03-23T04:11:10;94902.34;;;4.08;100.00
20013;BME280;10167;42.852;23.042;2023-03-23T04:13:40;94893.03;;;3.98;100.00
20013;BME280;10167;42.852;23.042;2023-03-23T04:16:18;94902.31;;;3.94;100.00
20013;BME280;10167;42.852;23.042;2023-03-23T04:18:48;94897.47;;;3.91;100.00
20013;BME280;10167;42.852;23.042;2023-03-23T04:21:17;94898.28;;;3.92;100.00
20013;BME280;10167;42.852;23.042;2023-03-23T04:23:49;94904.72;;;3.96;100.00
20013;BME280;10167;42.852;23.042;2023-03-23T04:26:17;94902.72;;;3.98;100.00
20013;BME280;10167;42.852;23.042;2023-03-23T04:28:49;94897.91;;;4.08;100.00
20013;BME280;10167;42.852;23.042;2023-03-23T04:31:33;94903.16;;;4.08;100.00
20013;BME280;10167;42.852;23.042;2023-03-23T04:34:17;94899.56;;;4.16;100.00
20013;BME280;10167;42.852;23.042;2023-03-23T04:36:48;94905.44;;;4.31;100.00
20013;BME280;10167;42.852;23.042;2023-03-23T04:39:22;94906.66;;;4.28;100.00
20013;BME280;10167;42.852;23.042;2023-03-23T04:41:52;94914.34;;;4.36;100.00
20013;BME280;10167;42.852;23.042;2023-03-23T04:44:25;94913.75;;;4.48;100.00
20013;BME280;10167;42.852;23.042;2023-03-23T04:47:05;94918.63;;;4.57;100.00
20013;BME280;10167;42.852;23.042;2023-03-23T04:49:41;94914.38;;;4.50;100.00
20013;BME280;10167;42.852;23.042;2023-03-23T04:52:19;94917.59;;;4.45;100.00
20013;BME280;10167;42.852;23.042;2023-03-23T04:54:55;94916.81;;;4.64;100.00
20013;BME280;10167;42.852;23.042;2023-03-23T04:57:24;94920.44;;;4.63;100.00
20013;BME280;10167;42.852;23.042;2023-03-23T05:00:17;94923.88;;;4.64;100.00
20013;BME280;10167;42.852;23.042;2023-03-23T05:02:54;94923.69;;;4.65;100.00
20013;BME280;10167;42.852;23.042;2023-03-23T05:05:25;94927.50;;;4.63;100.00
20013;BME280;10167;42.852;23.042;2023-03-23T05:07:56;94921.50;;;4.82;100.00
20013;BME280;10167;42.852;23.042;2023-03-23T05:10:29;94919.88;;;5.14;100.00
20013;BME280;10167;42.852;23.042;2023-03-23T05:13:04;94925.72;;;5.49;100.00
20013;BME280;10167;42.852;23.042;2023-03-23T05:15:32;94942.44;;;5.81;100.00
20013;BME280;10167;42.852;23.042;2023-03-23T05:18:02;94947.66;;;6.07;100.00
20013;BME280;10167;42.852;23.042;2023-03-23T05:20:31;94954.06;;;6.25;100.00
20013;BME280;10167;42.852;23.042;2023-03-23T05:23:07;94948.50;;;6.46;100.00
20013;BME280;10167;42.852;23.042;2023-03-23T05:25:37;94957.09;;;6.66;100.00
20013;BME280;10167;42.852;23.042;2023-03-23T05:28:15;94957.41;;;6.83;100.00
20013;BME280;10167;42.852;23.042;2023-03-23T05:31:06;94959.19;;;7.20;100.00
20013;BME280;10167;42.852;23.042;2023-03-23T05:33:34;94971.34;;;7.71;100.00
20013;BME280;10167;42.852;23.042;2023-03-23T05:36:11;94971.47;;;8.01;100.00
20013;BME280;10167;42.852;23.042;2023-03-23T05:39:05;94973.84;;;8.46;100.00
20013;BME280;10167;42.852;23.042;2023-03-23T05:42:03;94974.50;;;8.89;100.00
20013;BME280;10167;42.852;23.042;2023-03-23T05:44:50;94977.59;;;9.28;100.00
20013;BME280;10167;42.852;23.042;2023-03-23T05:47:20;94979.16;;;9.59;100.00
20013;BME280;10167;42.852;23.042;2023-03-23T05:49:56;94980.31;;;9.86;100.00
20013;BME280;10167;42.852;23.042;2023-03-23T05:52:26;94984.25;;;10.18;100.00
20013;BME280;10167;42.852;23.042;2023-03-23T05:54:54;94987.84;;;10.64;100.00
20013;BME280;10167;42.852;23.042;2023-03-23T05:57:25;94980.38;;;11.18;100.00
20013;BME280;10167;42.852;23.042;2023-03-23T06:00:04;94980.28;;;12.08;100.00
20013;BME280;10167;42.852;23.042;2023-03-23T06:02:39;94980.53;;;12.89;100.00
20013;BME280;10167;42.852;23.042;2023-03-23T06:05:15;94979.78;;;13.69;100.00
20013;BME280;10167;42.852;23.042;2023-03-23T06:07:48;94988.69;;;14.22;100.00
20013;BME280;10167;42.852;23.042;2023-03-23T06:10:16;94985.88;;;14.90;100.00
20013;BME280;10167;42.852;23.042;2023-03-23T06:12:54;94984.66;;;15.29;98.09
20013;BME280;10167;42.852;23.042;2023-03-23T06:15:30;94994.09;;;15.67;96.91
20013;BME280;10167;42.852;23.042;2023-03-23T06:18:30;94989.56;;;16.23;95.58
20013;BME280;10167;42.852;23.042;2023-03-23T06:21:31;94999.38;;;16.53;93.83
20013;BME280;10167;42.852;23.042;2023-03-23T06:24:25;94983.59;;;16.66;93.81
20013;BME280;10167;42.852;23.042;2023-03-23T06:26:53;94978.22;;;16.61;93.30
20013;BME280;10167;42.852;23.042;2023-03-23T06:29:23;94993.78;;;16.39;94.65
20013;BME280;10167;42.852;23.042;2023-03-23T06:31:56;94986.03;;;16.48;94.73
20013;BME280;10167;42.852;23.042;2023-03-23T06:34:27;94980.16;;;16.46;95.52
20013;BME280;10167;42.852;23.042;2023-03-23T06:37:18;94984.69;;;16.50;95.65
20013;BME280;10167;42.852;23.042;2023-03-23T06:40:08;94975.59;;;16.56;95.96
20013;BME280;10167;42.852;23.042;2023-03-23T06:42:41;94974.50;;;16.62;96.48
20013;BME280;10167;42.852;23.042;2023-03-23T06:45:37;94975.31;;;16.58;96.67
20013;BME280;10167;42.852;23.042;2023-03-23T06:48:34;94991.13;;;16.44;98.11
20013;BME280;10167;42.852;23.042;2023-03-23T06:51:05;94982.56;;;16.27;99.35
20013;BME280;10167;42.852;23.042;2023-03-23T06:53:38;94985.53;;;16.15;100.00
20013;BME280;10167;42.852;23.042;2023-03-23T06:56:11;94989.56;;;16.23;100.00
20013;BME280;10167;42.852;23.042;2023-03-23T06:58:42;94994.34;;;16.21;100.00
20013;BME280;10167;42.852;23.042;2023-03-23T07:01:14;94989.78;;;16.26;100.00
20013;BME280;10167;42.852;23.042;2023-03-23T07:03:50;94990.84;;;16.46;99.93
20013;BME280;10167;42.852;23.042;2023-03-23T07:06:27;94990.78;;;16.61;100.00
20013;BME280;10167;42.852;23.042;2023-03-23T07:08:59;94990.59;;;16.47;100.00
20013;BME280;10167;42.852;23.042;2023-03-23T07:11:28;94988.66;;;16.73;100.00
20013;BME280;10167;42.852;23.042;2023-03-23T07:14:01;94989.75;;;16.67;100.00
20013;BME280;10167;42.852;23.042;2023-03-23T07:16:31;94984.94;;;16.54;100.00
20013;BME280;10167;42.852;23.042;2023-03-23T07:18:59;94985.44;;;16.71;100.00
20013;BME280;10167;42.852;23.042;2023-03-23T07:21:27;94984.94;;;16.69;100.00
20013;BME280;10167;42.852;23.042;2023-03-23T07:23:55;94988.88;;;16.87;100.00
20013;BME280;10167;42.852;23.042;2023-03-23T07:26:40;94993.97;;;16.83;98.94
20013;BME280;10167;42.852;23.042;2023-03-23T07:29:09;94992.09;;;16.89;98.39
20013;BME280;10167;42.852;23.042;2023-03-23T07:31:43;94990.47;;;16.93;97.19
20013;BME280;10167;42.852;23.042;2023-03-23T07:34:11;94984.25;;;17.08;97.73
20013;BME280;10167;42.852;23.042;2023-03-23T07:37:02;94991.72;;;17.05;97.46
20013;BME280;10167;42.852;23.042;2023-03-23T07:39:34;94996.31;;;17.00;98.10
20013;BME280;10167;42.852;23.042;2023-03-23T07:42:02;94996.84;;;16.97;98.81
20013;BME280;10167;42.852;23.042;2023-03-23T07:44:53;94994.44;;;16.95;99.43
20013;BME280;10167;42.852;23.042;2023-03-23T07:47:22;94997.16;;;16.90;99.37
20013;BME280;10167;42.852;23.042;2023-03-23T07:49:50;94992.81;;;17.04;99.29
20013;BME280;10167;42.852;23.042;2023-03-23T07:52:34;94989.06;;;17.05;100.00
20013;BME280;10167;42.852;23.042;2023-03-23T07:55:04;94983.72;;;17.05;100.00
20013;BME280;10167;42.852;23.042;2023-03-23T07:57:53;94994.03;;;16.53;100.00
20013;BME280;10167;42.852;23.042;2023-03-23T08:00:22;94989.06;;;17.05;100.00
20013;BME280;10167;42.852;23.042;2023-03-23T08:02:55;94987.88;;;17.27;100.00
20013;BME280;10167;42.852;23.042;2023-03-23T08:05:33;94992.69;;;17.30;98.36
20013;BME280;10167;42.852;23.042;2023-03-23T08:08:08;94991.59;;;17.36;98.50
20013;BME280;10167;42.852;23.042;2023-03-23T08:11:08;94993.16;;;16.88;97.91
20013;BME280;10167;42.852;23.042;2023-03-23T08:14:11;94999.00;;;16.95;100.00
20013;BME280;10167;42.852;23.042;2023-03-23T08:16:41;95001.34;;;17.12;98.64
20013;BME280;10167;42.852;23.042;2023-03-23T08:19:40;95003.84;;;16.83;98.80
20013;BME280;10167;42.852;23.042;2023-03-23T08:22:32;95001.72;;;16.85;100.00
20013;BME280;10167;42.852;23.042;2023-03-23T08:25:25;94992.59;;;16.96;99.74
20013;BME280;10167;42.852;23.042;2023-03-23T08:28:20;95003.72;;;17.23;98.98
20013;BME280;10167;42.852;23.042;2023-03-23T09:06:46;94987.94;;;17.17;95.83
20013;BME280;10167;42.852;23.042;2023-03-23T09:09:28;94991.50;;;16.97;96.35
20013;BME280;10167;42.852;23.042;2023-03-23T09:11:56;94987.91;;;17.22;97.58
20013;BME280;10167;42.852;23.042;2023-03-23T09:14:24;94988.41;;;17.78;95.40
20013;BME280;10167;42.852;23.042;2023-03-23T09:16:51;94986.91;;;17.08;94.43
20013;BME280;10167;42.852;23.042;2023-03-23T09:19:19;94983.75;;;17.00;95.30
20013;BME280;10167;42.852;23.042;2023-03-23T09:21:49;94986.34;;;17.70;92.88
20013;BME280;10167;42.852;23.042;2023-03-23T09:24:17;94990.63;;;18.05;91.80
20013;BME280;10167;42.852;23.042;2023-03-23T09:26:45;94986.06;;;17.61;92.79
20013;BME280;10167;42.852;23.042;2023-03-23T09:29:13;94983.47;;;17.51;92.67
20013;BME280;10167;42.852;23.042;2023-03-23T09:31:41;94980.47;;;17.97;91.72
20013;BME280;10167;42.852;23.042;2023-03-23T09:34:09;94984.06;;;18.45;89.85
20013;BME280;10167;42.852;23.042;2023-03-23T09:36:37;94974.38;;;18.78;92.50
20013;BME280;10167;42.852;23.042;2023-03-23T09:39:06;94975.72;;;18.99;90.20
20013;BME280;10167;42.852;23.042;2023-03-23T09:41:52;94980.50;;;19.26;90.11
20013;BME280;10167;42.852;23.042;2023-03-23T09:44:29;94968.31;;;18.09;91.08
20013;BME280;10167;42.852;23.042;2023-03-23T09:47:03;94978.31;;;18.04;92.47
20013;BME280;10167;42.852;23.042;2023-03-23T09:49:35;94976.19;;;18.54;91.08
20013;BME280;10167;42.852;23.042;2023-03-23T09:52:10;94979.56;;;18.93;87.91
20013;BME280;10167;42.852;23.042;2023-03-23T09:54:41;94974.25;;;18.64;90.54
20013;BME280;10167;42.852;23.042;2023-03-23T09:57:15;94963.38;;;17.93;90.16
20013;BME280;10167;42.852;23.042;2023-03-23T09:59:46;94964.47;;;17.92;92.65
20013;BME280;10167;42.852;23.042;2023-03-23T10:02:19;94954.72;;;16.63;95.55
20013;BME280;10167;42.852;23.042;2023-03-23T10:04:50;94967.25;;;17.32;93.21
20013;BME280;10167;42.852;23.042;2023-03-23T10:07:21;94969.22;;;18.00;90.84
20013;BME280;10167;42.852;23.042;2023-03-23T10:09:53;94971.16;;;18.23;93.00
20013;BME280;10167;42.852;23.042;2023-03-23T10:12:29;94957.44;;;19.01;91.30
20013;BME280;10167;42.852;23.042;2023-03-23T10:15:12;94972.09;;;19.09;88.31
20013;BME280;10167;42.852;23.042;2023-03-23T10:17:45;94966.78;;;19.46;87.58
20013;BME280;10167;42.852;23.042;2023-03-23T10:20:21;94960.81;;;19.31;87.03
20013;BME280;10167;42.852;23.042;2023-03-23T10:22:55;94958.69;;;19.70;87.09
20013;BME280;10167;42.852;23.042;2023-03-23T10:25:29;94968.19;;;19.63;86.46
20013;BME280;10167;42.852;23.042;2023-03-23T10:28:01;94957.81;;;20.07;87.29
20013;BME280;10167;42.852;23.042;2023-03-23T10:30:34;94965.97;;;20.02;86.23
20013;BME280;10167;42.852;23.042;2023-03-23T10:33:08;94964.31;;;20.66;85.17
20013;BME280;10167;42.852;23.042;2023-03-23T10:35:40;94957.38;;;20.65;85.00
20013;BME280;10167;42.852;23.042;2023-03-23T10:38:13;94963.66;;;19.77;84.88
20013;BME280;10167;42.852;23.042;2023-03-23T10:40:50;94959.03;;;20.15;85.64
20013;BME280;10167;42.852;23.042;2023-03-23T10:43:18;94951.13;;;20.37;86.73
20013;BME280;10167;42.852;23.042;2023-03-23T10:45:51;94944.09;;;20.82;84.83
20013;BME280;10167;42.852;23.042;2023-03-23T10:48:27;94944.59;;;20.71;84.23
20013;BME280;10167;42.852;23.042;2023-03-23T10:50:59;94940.09;;;20.80;84.25
20013;BME280;10167;42.852;23.042;2023-03-23T10:53:32;94940.41;;;18.92;87.21
20013;BME280;10167;42.852;23.042;2023-03-23T10:56:03;94941.81;;;19.46;87.38
20013;BME280;10167;42.852;23.042;2023-03-23T10:58:33;94935.94;;;19.25;87.48
20013;BME280;10167;42.852;23.042;2023-03-23T11:01:03;94942.75;;;19.92;84.29
20013;BME280;10167;42.852;23.042;2023-03-23T11:03:42;94944.56;;;19.78;84.94
20013;BME280;10167;42.852;23.042;2023-03-23T11:06:17;94938.72;;;18.96;86.81
20013;BME280;10167;42.852;23.042;2023-03-23T11:08:52;94933.75;;;19.27;88.67
20013;BME280;10167;42.852;23.042;2023-03-23T11:11:27;94928.66;;;19.44;88.55
20013;BME280;10167;42.852;23.042;2023-03-23T11:13:58;94938.63;;;19.81;86.94
20013;BME280;10167;42.852;23.042;2023-03-23T11:16:29;94927.41;;;19.61;86.00
20013;BME280;10167;42.852;23.042;2023-03-23T11:18:58;94923.97;;;20.06;85.15
20013;BME280;10167;42.852;23.042;2023-03-23T11:21:27;94920.06;;;20.45;85.33
20013;BME280;10167;42.852;23.042;2023-03-23T11:23:57;94920.97;;;20.67;83.88
20013;BME280;10167;42.852;23.042;2023-03-23T11:26:29;94919.66;;;20.92;83.16
20013;BME280;10167;42.852;23.042;2023-03-23T11:28:59;94917.81;;;20.19;83.27
20013;BME280;10167;42.852;23.042;2023-03-23T11:31:30;94918.09;;;19.15;85.27
20013;BME280;10167;42.852;23.042;2023-03-23T11:34:02;94901.09;;;19.01;86.74
20013;BME280;10167;42.852;23.042;2023-03-23T11:36:35;94906.72;;;19.93;85.20
20013;BME280;10167;42.852;23.042;2023-03-23T11:39:16;94911.66;;;20.19;83.48
20013;BME280;10167;42.852;23.042;2023-03-23T11:41:48;94904.53;;;20.42;83.12
20013;BME280;10167;42.852;23.042;2023-03-23T11:44:16;94900.66;;;20.48;82.27
20013;BME280;10167;42.852;23.042;2023-03-23T11:47:00;94899.31;;;21.00;82.52
20013;BME280;10167;42.852;23.042;2023-03-23T11:49:40;94896.44;;;20.83;83.76
20013;BME280;10167;42.852;23.042;2023-03-23T11:52:14;94881.53;;;21.26;82.91
20013;BME280;10167;42.852;23.042;2023-03-23T11:54:48;94892.69;;;21.56;80.75
20013;BME280;10167;42.852;23.042;2023-03-23T11:57:20;94892.28;;;20.77;81.52
20013;BME280;10167;42.852;23.042;2023-03-23T11:59:48;94890.28;;;20.82;80.79
20013;BME280;10167;42.852;23.042;2023-03-23T12:02:35;94882.69;;;21.34;81.95
20013;BME280;10167;42.852;23.042;2023-03-23T12:05:30;94889.41;;;21.59;79.91
20013;BME280;10167;42.852;23.042;2023-03-23T12:08:10;94879.31;;;21.64;77.09
20013;BME280;10167;42.852;23.042;2023-03-23T12:10:46;94881.38;;;21.90;76.20
20013;BME280;10167;42.852;23.042;2023-03-23T12:13:31;94873.09;;;21.06;80.64
20013;BME280;10167;42.852;23.042;2023-03-23T12:16:09;94870.91;;;21.21;79.05
20013;BME280;10167;42.852;23.042;2023-03-23T12:18:47;94866.19;;;20.99;79.72
20013;BME280;10167;42.852;23.042;2023-03-23T12:21:26;94864.78;;;21.29;78.46
20013;BME280;10167;42.852;23.042;2023-03-23T12:24:01;94863.53;;;21.80;78.71
20013;BME280;10167;42.852;23.042;2023-03-23T12:26:36;94860.41;;;22.40;77.09
20013;BME280;10167;42.852;23.042;2023-03-23T12:32:46;94865.91;;;23.57;69.43
20013;BME280;10167;42.852;23.042;2023-03-23T12:35:27;94864.25;;;23.99;67.39
20013;BME280;10167;42.852;23.042;2023-03-23T12:38:09;94862.31;;;24.08;65.38
20013;BME280;10167;42.852;23.042;2023-03-23T12:43:35;94865.22;;;24.03;65.45
20013;BME280;10167;42.852;23.042;2023-03-23T12:46:18;94851.63;;;24.67;61.71
20013;BME280;10167;42.852;23.042;2023-03-23T12:48:55;94849.25;;;24.66;59.97
20013;BME280;10167;42.852;23.042;2023-03-23T12:51:29;94843.81;;;25.45;55.57
20013;BME280;10167;42.852;23.042;2023-03-23T12:54:03;94845.72;;;24.36;56.54
20013;BME280;10167;42.852;23.042;2023-03-23T12:56:38;94845.53;;;23.16;57.38
20013;BME280;10167;42.852;23.042;2023-03-23T12:59:13;94841.94;;;24.11;57.27
20013;BME280;10167;42.852;23.042;2023-03-23T13:01:46;94844.56;;;23.30;56.65
20013;BME280;10167;42.852;23.042;2023-03-23T13:04:20;94835.34;;;23.74;57.95
20013;BME280;10167;42.852;23.042;2023-03-23T13:06:49;94840.25;;;23.89;56.03
20013;BME280;10167;42.852;23.042;2023-03-23T13:09:20;94836.50;;;23.56;56.44
20013;BME280;10167;42.852;23.042;2023-03-23T13:11:49;94830.09;;;23.26;57.08
20013;BME280;10167;42.852;23.042;2023-03-23T13:14:25;94830.25;;;23.38;57.01
20013;BME280;10167;42.852;23.042;2023-03-23T13:17:01;94825.63;;;22.30;58.04
20013;BME280;10167;42.852;23.042;2023-03-23T13:19:51;94824.47;;;21.24;59.93
20013;BME280;10167;42.852;23.042;2023-03-23T13:22:27;94827.31;;;21.64;61.83
20013;BME280;10167;42.852;23.042;2023-03-23T13:25:02;94822.28;;;21.71;60.76
20013;BME280;10167;42.852;23.042;2023-03-23T13:27:31;94820.91;;;21.15;61.03
20013;BME280;10167;42.852;23.042;2023-03-23T13:29:59;94816.50;;;20.83;63.13
20013;BME280;10167;42.852;23.042;2023-03-23T13:32:34;94815.41;;;20.84;63.03
20013;BME280;10167;42.852;23.042;2023-03-23T13:35:10;94810.75;;;20.21;65.01
20013;BME280;10167;42.852;23.042;2023-03-23T13:37:41;94810.66;;;19.02;67.27
20013;BME280;10167;42.852;23.042;2023-03-23T13:40:21;94810.63;;;19.72;65.32
20013;BME280;10167;42.852;23.042;2023-03-23T13:42:55;94804.69;;;20.02;63.27
20013;BME280;10167;42.852;23.042;2023-03-23T13:45:36;94795.03;;;20.15;63.00
20013;BME280;10167;42.852;23.042;2023-03-23T13:48:17;94803.38;;;19.86;63.10
20013;BME280;10167;42.852;23.042;2023-03-23T13:50:54;94793.34;;;20.05;63.37
20013;BME280;10167;42.852;23.042;2023-03-23T13:53:26;94795.56;;;19.57;65.38
20013;BME280;10167;42.852;23.042;2023-03-23T13:56:17;94796.97;;;19.68;66.03
20013;BME280;10167;42.852;23.042;2023-03-23T13:58:48;94794.50;;;19.20;64.97
20013;BME280;10167;42.852;23.042;2023-03-23T14:01:19;94797.88;;;18.75;64.96
20013;BME280;10167;42.852;23.042;2023-03-23T14:03:59;94796.22;;;19.16;66.38
20013;BME280;10167;42.852;23.042;2023-03-23T14:06:34;94794.28;;;19.36;64.17
20013;BME280;10167;42.852;23.042;2023-03-23T14:09:13;94784.06;;;19.19;64.33
20013;BME280;10167;42.852;23.042;2023-03-23T14:11:54;94792.25;;;18.95;65.27
20013;BME280;10167;42.852;23.042;2023-03-23T14:14:28;94783.31;;;19.00;65.50